createdAt,value
2022-12-29T00:02:14.251Z,2.78
2022-12-29T00:04:40.704Z,2.80
2022-12-29T00:07:07.245Z,2.81
2022-12-29T00:09:33.873Z,2.79
2022-12-29T00:12:00.467Z,2.81
2022-12-29T00:14:45.723Z,2.82
2022-12-29T00:17:12.206Z,2.86
2022-12-29T00:19:57.392Z,2.91
2022-12-29T00:22:42.541Z,2.93
2022-12-29T00:25:28.155Z,2.92
2022-12-29T00:28:13.302Z,2.93
2022-12-29T00:30:59.068Z,3.01
2022-12-29T00:33:50.943Z,3.01
2022-12-29T00:36:18.295Z,3.03
2022-12-29T00:39:05.529Z,3.04
2022-12-29T00:41:50.691Z,3.04
2022-12-29T00:44:17.276Z,3.05
2022-12-29T00:46:43.967Z,3.06
2022-12-29T00:49:30.379Z,3.04
2022-12-29T00:51:57.529Z,3.00
2022-12-29T00:54:23.979Z,2.99
2022-12-29T00:56:50.893Z,2.98
2022-12-29T00:59:17.438Z,2.92
2022-12-29T01:01:49.917Z,2.89
2022-12-29T01:04:16.773Z,2.89
2022-12-29T01:06:44.818Z,2.95
2022-12-29T01:09:30.063Z,2.94
2022-12-29T01:11:56.653Z,2.96
2022-12-29T01:14:23.169Z,2.99
2022-12-29T01:16:49.724Z,3.00
2022-12-29T01:19:16.284Z,3.02
2022-12-29T01:21:44.945Z,3.01
2022-12-29T01:24:11.476Z,2.98
2022-12-29T01:26:38.171Z,2.97
2022-12-29T01:29:04.624Z,2.97
2022-12-29T01:31:31.135Z,2.97
2022-12-29T01:33:57.631Z,2.94
2022-12-29T01:36:24.527Z,2.91
2022-12-29T01:38:50.977Z,2.92
2022-12-29T01:41:17.548Z,2.91
2022-12-29T01:43:49.035Z,2.94
2022-12-29T01:46:34.265Z,2.93
2022-12-29T01:49:03.863Z,2.88
2022-12-29T01:51:30.968Z,2.83
2022-12-29T01:53:57.477Z,2.88
2022-12-29T01:56:24.124Z,2.88
2022-12-29T01:58:51.804Z,2.85
2022-12-29T02:01:18.775Z,2.85
2022-12-29T02:03:45.303Z,2.87
2022-12-29T02:06:35.364Z,2.89
2022-12-29T02:09:02.093Z,2.93
2022-12-29T02:11:28.952Z,2.99
2022-12-29T02:13:55.596Z,2.99
2022-12-29T02:16:28.247Z,3.00
2022-12-29T02:18:54.849Z,3.03
2022-12-29T02:21:40.124Z,3.10
2022-12-29T02:24:26.856Z,3.05
2022-12-29T02:27:08.327Z,3.06
2022-12-29T02:29:53.007Z,3.00
2022-12-29T02:32:19.547Z,2.92
2022-12-29T02:34:46.112Z,2.90
2022-12-29T02:37:15.657Z,2.92
2022-12-29T02:39:44.828Z,2.93
2022-12-29T02:42:14.394Z,2.91
2022-12-29T02:44:56.991Z,2.96
2022-12-29T02:47:25.267Z,2.96
2022-12-29T02:49:54.686Z,2.96
2022-12-29T02:52:23.313Z,2.99
2022-12-29T02:54:50.190Z,2.97
2022-12-29T02:57:28.781Z,2.90
2022-12-29T03:00:02.574Z,2.87
2022-12-29T03:02:37.164Z,2.82
2022-12-29T03:05:12.470Z,2.84
2022-12-29T03:07:57.700Z,2.81
2022-12-29T03:10:39.461Z,2.82
2022-12-29T03:13:30.224Z,2.87
2022-12-29T03:16:07.501Z,2.85
2022-12-29T03:18:40.139Z,2.83
2022-12-29T03:21:08.955Z,2.90
2022-12-29T03:23:36.145Z,2.91
2022-12-29T03:26:03.107Z,2.96
2022-12-29T03:28:30.758Z,3.03
2022-12-29T03:30:58.205Z,3.02
2022-12-29T03:33:25.293Z,3.09
2022-12-29T03:35:52.141Z,3.10
2022-12-29T03:38:20.547Z,3.10
2022-12-29T03:40:48.314Z,3.10
2022-12-29T03:43:14.735Z,3.03
2022-12-29T03:45:41.257Z,3.05
2022-12-29T03:48:07.790Z,3.04
2022-12-29T03:50:34.310Z,2.99
2022-12-29T03:53:00.848Z,3.00
2022-12-29T03:55:27.282Z,3.04
2022-12-29T03:57:53.712Z,3.08
2022-12-29T04:00:20.224Z,3.05
2022-12-29T04:02:46.898Z,2.99
2022-12-29T04:05:13.517Z,2.97
2022-12-29T04:07:40.879Z,3.01
2022-12-29T04:10:07.438Z,3.10
2022-12-29T04:12:34.061Z,3.14
2022-12-29T04:15:00.884Z,3.17
2022-12-29T04:17:27.359Z,3.18
2022-12-29T04:20:13.747Z,3.17
2022-12-29T04:22:40.812Z,3.19
2022-12-29T04:25:07.563Z,3.22
2022-12-29T04:27:34.068Z,3.20
2022-12-29T04:30:01.045Z,3.23
2022-12-29T04:32:27.550Z,3.20
2022-12-29T04:34:53.987Z,3.16
2022-12-29T04:37:20.448Z,3.12
2022-12-29T04:39:47.043Z,3.12
2022-12-29T04:42:13.510Z,3.05
2022-12-29T04:44:45.094Z,3.09
2022-12-29T04:47:11.855Z,3.09
2022-12-29T04:49:38.280Z,3.11
2022-12-29T04:52:05.199Z,3.08
2022-12-29T04:54:31.647Z,3.06
2022-12-29T04:56:58.193Z,3.05
2022-12-29T04:59:24.686Z,2.99
2022-12-29T05:01:51.234Z,2.94
2022-12-29T05:04:17.888Z,2.90
2022-12-29T05:06:44.384Z,2.86
2022-12-29T05:09:10.857Z,2.80
2022-12-29T05:11:37.395Z,2.78
2022-12-29T05:14:03.894Z,2.85
2022-12-29T05:16:30.355Z,2.86
2022-12-29T05:18:56.801Z,2.84
2022-12-29T05:21:23.367Z,2.81
2022-12-29T05:23:49.792Z,2.84
2022-12-29T05:26:16.315Z,2.80
2022-12-29T05:28:42.765Z,2.77
2022-12-29T05:31:09.351Z,2.74
2022-12-29T05:33:35.999Z,2.71
2022-12-29T05:36:09.073Z,2.65
2022-12-29T05:38:35.751Z,2.59
2022-12-29T05:41:02.210Z,2.57
2022-12-29T05:43:28.696Z,2.56
2022-12-29T05:45:55.234Z,2.55
2022-12-29T05:48:21.812Z,2.54
2022-12-29T05:50:49.288Z,2.53
2022-12-29T05:53:15.830Z,2.47
2022-12-29T05:55:47.011Z,2.46
2022-12-29T05:58:15.689Z,2.43
2022-12-29T06:00:42.335Z,2.50
2022-12-29T06:03:08.939Z,2.54
2022-12-29T06:05:35.764Z,2.55
2022-12-29T06:08:02.191Z,2.60
2022-12-29T06:10:28.750Z,2.62
2022-12-29T06:12:55.282Z,2.63
2022-12-29T06:15:21.710Z,2.64
2022-12-29T06:17:48.268Z,2.63
2022-12-29T06:20:14.783Z,2.66
2022-12-29T06:22:41.586Z,2.64
2022-12-29T06:25:08.641Z,2.62
2022-12-29T06:27:35.114Z,2.64
2022-12-29T06:30:01.560Z,2.61
2022-12-29T06:32:28.084Z,2.62
2022-12-29T06:34:54.782Z,2.59
2022-12-29T06:37:21.208Z,2.57
2022-12-29T06:39:47.642Z,2.50
2022-12-29T06:42:14.237Z,2.55
2022-12-29T06:44:40.875Z,2.58
2022-12-29T06:47:07.275Z,2.53
2022-12-29T06:49:33.720Z,2.55
2022-12-29T06:52:01.663Z,2.60
2022-12-29T06:54:28.110Z,2.66
2022-12-29T06:56:54.566Z,2.61
2022-12-29T06:59:21.014Z,2.58
2022-12-29T07:01:47.819Z,2.59
2022-12-29T07:04:14.449Z,2.58
2022-12-29T07:06:41.753Z,2.61
2022-12-29T07:09:08.969Z,2.61
2022-12-29T07:11:35.569Z,2.59
2022-12-29T07:14:02.283Z,2.59
2022-12-29T07:16:30.566Z,2.58
2022-12-29T07:18:57.634Z,2.56
2022-12-29T07:21:24.097Z,2.55
2022-12-29T07:23:50.680Z,2.53
2022-12-29T07:26:19.148Z,2.59
2022-12-29T07:28:45.649Z,2.60
2022-12-29T07:31:19.543Z,2.63
2022-12-29T07:33:46.207Z,2.69
2022-12-29T07:36:13.136Z,2.72
2022-12-29T07:38:39.812Z,2.74
2022-12-29T07:41:06.248Z,2.75
2022-12-29T07:43:32.823Z,2.76
2022-12-29T07:45:59.548Z,2.78
2022-12-29T07:48:26.148Z,2.80
2022-12-29T07:50:53.055Z,2.95
2022-12-29T07:53:19.700Z,3.05
2022-12-29T07:55:46.208Z,3.06
2022-12-29T07:58:13.278Z,3.10
2022-12-29T08:00:40.002Z,3.13
2022-12-29T08:03:06.453Z,3.25
2022-12-29T08:05:33.454Z,3.36
2022-12-29T08:08:00.551Z,3.44
2022-12-29T08:10:27.893Z,3.55
2022-12-29T08:12:54.528Z,3.63
2022-12-29T08:15:22.548Z,3.71
2022-12-29T08:17:52.618Z,3.89
2022-12-29T08:20:19.140Z,4.07
2022-12-29T08:22:45.624Z,4.23
2022-12-29T08:25:12.251Z,4.38
2022-12-29T08:27:38.990Z,4.55
2022-12-29T08:30:05.730Z,4.75
2022-12-29T08:32:32.276Z,4.97
2022-12-29T08:34:59.263Z,5.55
2022-12-29T08:37:31.309Z,6.36
2022-12-29T08:39:59.698Z,7.24
2022-12-29T08:42:31.910Z,8.18
2022-12-29T08:45:01.429Z,9.03
2022-12-29T08:47:28.167Z,9.82
2022-12-29T08:49:54.676Z,10.32
2022-12-29T08:52:21.304Z,10.71
2022-12-29T08:54:47.822Z,11.10
2022-12-29T08:57:14.309Z,11.45
2022-12-29T08:59:41.308Z,11.78
2022-12-29T09:02:11.117Z,12.04
2022-12-29T09:04:37.839Z,12.36
2022-12-29T09:07:04.572Z,12.63
2022-12-29T09:09:31.066Z,13.02
2022-12-29T09:11:57.556Z,13.47
2022-12-29T09:14:23.989Z,13.83
2022-12-29T09:17:10.671Z,14.29
2022-12-29T09:19:38.006Z,14.61
2022-12-29T09:22:04.465Z,14.86
2022-12-29T09:24:31.058Z,15.04
2022-12-29T09:26:57.867Z,15.20
2022-12-29T09:29:24.704Z,15.06
2022-12-29T09:31:51.197Z,14.62
2022-12-29T09:34:17.720Z,14.12
2022-12-29T09:36:44.241Z,13.53
2022-12-29T09:39:10.765Z,12.97
2022-12-29T09:41:42.010Z,12.44
2022-12-29T09:44:18.569Z,11.91
2022-12-29T09:46:45.935Z,11.43
2022-12-29T09:49:24.517Z,11.02
2022-12-29T09:51:54.663Z,10.62
2022-12-29T09:54:30.518Z,10.22
2022-12-29T09:56:57.005Z,9.93
2022-12-29T09:59:25.596Z,9.67
2022-12-29T10:01:58.961Z,9.41
2022-12-29T10:04:27.582Z,9.21
2022-12-29T10:07:29.082Z,9.03
2022-12-29T10:10:16.953Z,8.81
2022-12-29T10:12:52.514Z,8.72
2022-12-29T10:15:40.655Z,8.60
2022-12-29T10:18:25.996Z,8.50
2022-12-29T10:21:11.184Z,8.40
2022-12-29T10:23:41.752Z,8.25
2022-12-29T10:26:10.422Z,8.12
2022-12-29T10:28:44.343Z,8.13
2022-12-29T10:31:14.231Z,8.08
2022-12-29T10:33:41.798Z,7.98
2022-12-29T10:36:20.308Z,7.92
2022-12-29T10:39:07.055Z,7.88
2022-12-29T10:41:41.307Z,7.86
2022-12-29T10:44:08.159Z,7.84
2022-12-29T10:46:35.352Z,7.91
2022-12-29T10:49:03.055Z,7.91
2022-12-29T10:51:31.223Z,7.86
2022-12-29T10:54:03.179Z,7.82
2022-12-29T10:56:29.933Z,7.88
2022-12-29T10:58:56.885Z,7.74
2022-12-29T11:01:23.714Z,7.67
2022-12-29T11:04:00.835Z,7.56
2022-12-29T11:06:27.767Z,7.53
2022-12-29T11:08:54.222Z,7.47
2022-12-29T11:11:28.571Z,7.40
2022-12-29T11:13:59.436Z,7.38
2022-12-29T11:16:31.794Z,7.38
2022-12-29T11:18:58.579Z,7.41
2022-12-29T11:21:31.163Z,7.38
2022-12-29T11:24:01.749Z,7.41
2022-12-29T11:26:33.833Z,7.43
2022-12-29T11:29:07.120Z,7.42
2022-12-29T11:31:40.867Z,7.43
2022-12-29T11:34:07.748Z,7.42
2022-12-29T11:36:34.314Z,7.39
2022-12-29T11:39:00.763Z,7.36
2022-12-29T11:41:28.258Z,7.40
2022-12-29T11:43:55.111Z,7.42
2022-12-29T11:46:23.818Z,7.50
2022-12-29T11:48:50.716Z,7.62
2022-12-29T11:51:25.415Z,7.75
2022-12-29T11:53:53.036Z,7.73
2022-12-29T11:56:35.379Z,7.74
2022-12-29T11:59:25.469Z,7.66
2022-12-29T12:01:51.982Z,7.73
2022-12-29T12:04:18.599Z,7.78
2022-12-29T12:06:59.858Z,7.73
2022-12-29T12:09:27.942Z,7.68
2022-12-29T12:11:55.038Z,7.62
2022-12-29T12:14:22.919Z,7.55
2022-12-29T12:17:08.190Z,7.52
2022-12-29T12:19:34.739Z,7.48
2022-12-29T12:22:20.053Z,7.44
2022-12-29T12:24:48.664Z,7.33
2022-12-29T12:27:17.915Z,7.26
2022-12-29T12:29:48.328Z,7.15
2022-12-29T12:32:14.849Z,7.07
2022-12-29T12:34:44.653Z,6.98
2022-12-29T12:37:14.200Z,6.97
2022-12-29T12:39:52.982Z,6.89
2022-12-29T12:42:30.268Z,6.87
2022-12-29T12:45:06.103Z,6.88
2022-12-29T12:47:48.885Z,6.86
2022-12-29T12:50:18.368Z,6.91
2022-12-29T12:52:51.240Z,6.89
2022-12-29T12:55:24.080Z,6.99
2022-12-29T13:01:20.897Z,7.26
2022-12-29T13:03:54.767Z,7.32
2022-12-29T13:06:33.481Z,7.36
2022-12-29T13:09:12.953Z,7.33
2022-12-29T13:11:39.385Z,7.37
2022-12-29T13:14:21.175Z,7.42
2022-12-29T13:17:06.492Z,7.46
2022-12-29T13:19:43.000Z,7.48
2022-12-29T13:22:18.437Z,7.47
2022-12-29T13:24:44.838Z,7.51
2022-12-29T13:27:14.101Z,7.49
2022-12-29T13:29:49.851Z,7.56
2022-12-29T13:32:24.307Z,7.58
2022-12-29T13:34:51.112Z,7.62
2022-12-29T13:37:18.205Z,7.53
2022-12-29T13:39:52.454Z,7.49
2022-12-29T13:42:19.593Z,7.48
2022-12-29T13:44:54.728Z,7.48
2022-12-29T13:47:24.117Z,7.44
2022-12-29T13:49:51.054Z,7.38
2022-12-29T13:52:32.016Z,7.36
2022-12-29T13:55:28.126Z,7.33
2022-12-29T13:58:09.840Z,7.30
2022-12-29T14:01:02.563Z,7.30
2022-12-29T14:03:37.182Z,7.28
2022-12-29T14:06:24.709Z,7.28
2022-12-29T14:08:52.250Z,7.34
2022-12-29T14:11:18.984Z,7.33
2022-12-29T14:13:46.008Z,7.32
2022-12-29T14:16:45.773Z,7.29
2022-12-29T14:19:12.495Z,7.27
2022-12-29T14:21:39.159Z,7.22
2022-12-29T14:24:24.560Z,7.19
2022-12-29T14:26:51.007Z,7.14
2022-12-29T14:29:26.757Z,7.11
2022-12-29T14:31:53.579Z,7.05
2022-12-29T14:34:23.145Z,7.02
2022-12-29T14:36:55.786Z,6.95
2022-12-29T14:39:41.324Z,6.91
2022-12-29T14:42:10.966Z,6.83
2022-12-29T14:44:57.660Z,6.79
2022-12-29T14:47:27.239Z,6.70
2022-12-29T14:49:53.698Z,6.62
2022-12-29T14:52:21.031Z,6.55
2022-12-29T14:54:50.372Z,6.60
2022-12-29T14:57:20.817Z,6.53
2022-12-29T14:59:47.301Z,6.46
2022-12-29T15:02:18.333Z,6.37
2022-12-29T15:04:44.836Z,6.29
2022-12-29T15:07:17.917Z,6.21
2022-12-29T15:09:53.495Z,6.12
2022-12-29T15:12:19.944Z,6.06
2022-12-29T15:14:53.798Z,5.96
2022-12-29T15:17:27.564Z,5.89
2022-12-29T15:19:54.550Z,5.82
2022-12-29T15:22:21.241Z,5.77
2022-12-29T15:24:47.687Z,5.76
2022-12-29T15:27:14.672Z,5.76
2022-12-29T15:29:41.809Z,5.72
2022-12-29T15:32:17.268Z,5.70
2022-12-29T15:34:47.468Z,5.70
2022-12-29T15:37:21.679Z,5.70
2022-12-29T15:39:49.091Z,5.73
2022-12-29T15:42:18.675Z,5.71
2022-12-29T15:44:45.235Z,5.65
2022-12-29T15:47:16.958Z,5.58
2022-12-29T15:49:44.052Z,5.52
2022-12-29T15:52:10.733Z,5.47
2022-12-29T15:54:37.349Z,5.47
2022-12-29T15:57:04.119Z,5.44
2022-12-29T15:59:31.865Z,5.48
2022-12-29T16:01:58.911Z,5.47
2022-12-29T16:04:26.760Z,5.47
2022-12-29T16:06:56.556Z,5.42
2022-12-29T16:09:36.120Z,5.42
2022-12-29T16:12:06.466Z,5.44
2022-12-29T16:14:42.032Z,5.48
2022-12-29T16:17:10.657Z,5.43
2022-12-29T16:19:38.114Z,5.37
2022-12-29T16:22:05.581Z,5.40
2022-12-29T16:24:32.569Z,5.37
2022-12-29T16:27:17.632Z,5.33
2022-12-29T16:29:44.109Z,5.25
2022-12-29T16:32:26.862Z,5.23
2022-12-29T16:35:01.397Z,5.20
2022-12-29T16:37:31.915Z,5.19
2022-12-29T16:44:19.317Z,5.15
2022-12-29T16:50:51.582Z,5.21
2022-12-29T17:17:29.465Z,4.99
2022-12-29T17:19:56.797Z,5.00
2022-12-29T17:22:25.822Z,4.98
2022-12-29T17:24:53.343Z,5.04
2022-12-29T17:27:21.648Z,5.02
2022-12-29T17:29:48.115Z,5.00
2022-12-29T17:32:14.816Z,5.04
2022-12-29T17:34:41.603Z,5.07
2022-12-29T17:37:31.365Z,5.10
2022-12-29T17:39:57.953Z,5.15
2022-12-29T17:42:24.495Z,5.15
2022-12-29T17:44:51.111Z,5.25
2022-12-29T17:47:17.691Z,5.22
2022-12-29T17:49:47.124Z,5.22
2022-12-29T17:52:13.879Z,5.21
2022-12-29T17:54:42.472Z,5.28
2022-12-29T17:57:15.871Z,5.31
2022-12-29T17:59:42.456Z,5.31
2022-12-29T18:02:23.859Z,5.43
2022-12-29T18:04:50.513Z,5.41
2022-12-29T18:07:17.133Z,5.37
2022-12-29T18:09:43.730Z,5.31
2022-12-29T18:12:20.953Z,5.28
2022-12-29T18:14:47.462Z,5.29
2022-12-29T18:17:14.039Z,5.26
2022-12-29T18:19:40.723Z,5.27
2022-12-29T18:22:08.337Z,5.30
2022-12-29T18:24:34.757Z,5.27
2022-12-29T18:27:01.487Z,5.19
2022-12-29T18:29:28.025Z,5.19
2022-12-29T18:31:54.583Z,5.18
2022-12-29T18:34:21.097Z,5.15
2022-12-29T18:36:47.593Z,5.16
2022-12-29T18:39:14.174Z,5.11
2022-12-29T18:41:40.630Z,5.07
2022-12-29T18:44:09.365Z,5.04
2022-12-29T18:46:35.851Z,4.99
2022-12-29T18:49:02.360Z,4.96
2022-12-29T18:51:28.900Z,5.00
2022-12-29T18:53:55.344Z,5.02
2022-12-29T18:56:23.066Z,5.04
2022-12-29T18:58:50.083Z,4.98
2022-12-29T19:01:18.951Z,4.91
2022-12-29T19:03:45.432Z,4.91
2022-12-29T19:06:11.910Z,4.86
2022-12-29T19:08:39.125Z,4.78
2022-12-29T19:11:05.653Z,4.72
2022-12-29T19:13:32.138Z,4.65
2022-12-29T19:15:58.797Z,4.61
2022-12-29T19:18:43.625Z,4.59
2022-12-29T19:21:11.755Z,4.51
2022-12-29T19:23:38.341Z,4.47
2022-12-29T19:26:04.855Z,4.49
2022-12-29T19:28:31.328Z,4.43
2022-12-29T19:31:01.737Z,4.44
2022-12-29T19:33:28.337Z,4.39
2022-12-29T19:35:58.578Z,4.34
2022-12-29T19:38:25.058Z,4.31
2022-12-29T19:40:51.609Z,4.27
2022-12-29T19:43:18.167Z,4.24
2022-12-29T19:45:44.835Z,3.52
2022-12-29T19:48:12.784Z,4.23
2022-12-29T19:50:39.270Z,4.23
2022-12-29T19:53:05.956Z,4.22
2022-12-29T19:55:32.656Z,4.25
2022-12-29T19:57:59.271Z,4.25
2022-12-29T20:00:25.775Z,4.26
2022-12-29T20:02:52.470Z,4.26
2022-12-29T20:05:19.696Z,4.23
2022-12-29T20:07:46.397Z,4.20
2022-12-29T20:10:12.871Z,4.17
2022-12-29T20:12:39.516Z,4.14
2022-12-29T20:15:06.956Z,4.12
2022-12-29T20:18:10.890Z,4.10
2022-12-29T20:20:19.883Z,4.04
2022-12-29T20:22:46.419Z,4.02
2022-12-29T20:25:43.749Z,4.00
2022-12-29T20:27:59.423Z,3.99
2022-12-29T20:30:25.959Z,3.97
2022-12-29T20:32:52.521Z,3.98
2022-12-29T20:35:19.331Z,3.97
2022-12-29T20:37:45.859Z,3.98
2022-12-29T20:40:13.156Z,3.95
2022-12-29T20:42:39.716Z,3.99
2022-12-29T20:45:06.359Z,4.01
2022-12-29T20:47:32.812Z,3.99
2022-12-29T20:50:01.471Z,3.97
2022-12-29T20:52:28.509Z,3.95
2022-12-29T20:54:54.987Z,3.91
2022-12-29T20:57:21.482Z,3.92
2022-12-29T20:59:48.092Z,3.93
2022-12-29T21:02:21.457Z,3.98
2022-12-29T21:05:22.292Z,3.92
2022-12-29T21:07:34.923Z,3.86
2022-12-29T21:10:01.645Z,3.81
2022-12-29T21:12:28.396Z,3.78
2022-12-29T21:14:54.962Z,3.74
2022-12-29T21:17:21.683Z,3.73
2022-12-29T21:19:48.797Z,2.25
2022-12-29T21:22:15.264Z,3.76
2022-12-29T21:24:41.738Z,3.79
2022-12-29T21:27:08.158Z,3.82
2022-12-29T21:29:34.644Z,3.82
2022-12-29T21:32:06.248Z,3.84
2022-12-29T21:34:34.752Z,3.83
2022-12-29T21:37:01.532Z,3.84
2022-12-29T21:39:28.337Z,3.87
2022-12-29T21:42:00.355Z,3.84
2022-12-29T21:44:46.083Z,3.86
2022-12-29T21:47:12.638Z,3.89
2022-12-29T21:49:39.209Z,3.91
2022-12-29T21:52:05.784Z,3.94
2022-12-29T21:54:50.958Z,3.94
2022-12-29T21:57:36.283Z,3.99
2022-12-29T22:00:21.815Z,4.03
2022-12-29T22:03:07.061Z,4.11
2022-12-29T22:05:52.510Z,4.22
2022-12-29T22:08:37.717Z,4.25
2022-12-29T22:11:24.988Z,4.30
2022-12-29T22:13:55.715Z,4.32
2022-12-29T22:16:23.107Z,4.34
2022-12-29T22:18:49.879Z,4.33
2022-12-29T22:21:16.349Z,4.36
2022-12-29T22:23:42.898Z,4.39
2022-12-29T22:26:10.070Z,4.38
2022-12-29T22:28:40.496Z,3.86
2022-12-29T22:31:07.446Z,4.35
2022-12-29T22:33:34.016Z,4.34
2022-12-29T22:36:00.468Z,4.28
2022-12-29T22:38:27.007Z,4.22
2022-12-29T22:40:58.176Z,4.27
2022-12-29T22:43:25.648Z,4.27
2022-12-29T22:45:52.075Z,4.21
2022-12-29T22:48:18.585Z,4.18
2022-12-29T22:50:45.039Z,4.19
2022-12-29T22:53:11.671Z,4.20
2022-12-29T22:55:38.239Z,4.17
2022-12-29T22:58:04.889Z,4.14
2022-12-29T23:00:32.431Z,4.07
2022-12-29T23:02:59.071Z,4.03
2022-12-29T23:05:25.644Z,4.03
2022-12-29T23:07:52.121Z,4.08
2022-12-29T23:10:18.576Z,4.11
2022-12-29T23:12:45.000Z,4.11
2022-12-29T23:15:12.118Z,4.09
2022-12-29T23:17:38.964Z,4.11
2022-12-29T23:20:08.765Z,4.11
2022-12-29T23:22:35.359Z,4.10
2022-12-29T23:25:01.917Z,4.13
2022-12-29T23:27:28.348Z,4.14
2022-12-29T23:29:54.788Z,4.12
2022-12-29T23:32:21.987Z,4.12
2022-12-29T23:34:48.421Z,4.13
2022-12-29T23:37:14.883Z,4.12
2022-12-29T23:39:41.357Z,4.06
2022-12-29T23:42:07.855Z,3.99
2022-12-29T23:44:34.339Z,3.94
2022-12-29T23:47:00.867Z,3.86
2022-12-29T23:49:27.416Z,3.81
2022-12-29T23:51:53.859Z,3.72
2022-12-29T23:54:20.703Z,3.65
2022-12-29T23:56:47.180Z,3.61
2022-12-29T23:59:13.609Z,3.58
